aviador You're here:

YMLT Decoded Metar

LAUNCESTON in AUSTRALIA
Report Time2018-05-20 22:30:00
UTC Time2018-05-20 23:04:53
Flight Rules vfr VFR
Wind340° at 05 kt
W.Decomp.*RWY 32: 5.0 kt HW 0.5 kt RCW
RWY 36: 4.1 kt HW 2.8 kt LCW
W.Rank340° ranks 1
Current wind is below 340° avg. (12.1)
Visibility9999 m
Phenomena:N/A
Clouds:N/A
Expected CloudBase > 1,200 ft AGL from Temp-Dew spread
CeilingNone
Temp07°C (ISA -7)
Dew Point04°C (81% RH)
AAT3.9°C
QNH1013 hPa
Density Alt-125 ft
Elevation584 ft
Report Wrong Elevation
Raw Report
YMLT 202230Z AUTO 34005KT 310V010 9999 // NCD 07/04 Q1013
RF00.0/000.0=

Extra information for YMLT:More info

Metar Taf Metar & Taf Last 4 Metars F.Rules Stats Wind Profile Meteogram Temp Stats Airport Information Weather charts Add Link Nearby VenuesMetar ALERT Operation Metar Decoded Social comments